Aérodrome :
LOGIN :

S'inscrire | Disclaimer

   EN    FR    IT 

 










Légende :    VFR   VFR Marginal   IFR   IFR Intensif   IFR Très Intensif
Visi : 
Plafond : 
>= 8 km
>= 3000ft
5 à 8 km
1000 à 3000 ft
1500m à 5 km
500 à 1000 ft
800 à 1500m
200 à 500 ft
< 800m
< 200 ft
Symboles :   Orages  Brouillard  Fortes neiges  Fortes précipitations  Vent > 20 kt
SIGMETs :   Divers  Orages  Givrage  Turbulence  Onde Orograph.  Cendres Volcan.






- Altitude de l'aérodrome : 1071 ft
- Code IATA : LWO


UKLL - L'viv

DERNIER METAR :
  • 232030Z 20005MPS 9000 -SHRA SCT030CB BKN030 05/04 Q0999 R13/290055 TEMPO 30013G22MPS

METARs EXPIRÉS :
  • 232000Z 19004MPS 7000 -SHRA SCT030CB BKN030 04/04 Q1000 R13/290055 TEMPO 30013G22MPS
  • 231930Z 20003MPS 6000 -SHRA SCT028CB BKN028 04/03 Q1002 R13/290055 TEMPO 30013G22MPS
  • 231900Z 20004MPS 6000 -SHRA SCT028CB BKN028 04/03 Q1003 R13/290055 TEMPO 30013G22MPS
  • 231830Z 20003MPS 6000 -SHRA SCT025CB BKN025 04/03 Q1003 R13/290055 NOSIG
  • 231800Z 20003MPS 6000 -SHRA SCT031CB BKN031 04/03 Q1004 R13/290055 NOSIG

TAF COR TAF UKLL
Valide du 23 à 18h jusqu'au 24 à 18h UTC


231805Z 2318/2418 21007G14MPS 5000 BR BKN007 SCT020CB TX05/2323Z TN03/2406Z
TEMPO 2318/2321 2100 -SHRA BKN004 BKN017CB
BECMG 2321/2322 28010G15MPS
TEMPO 2322/2412 30013G22MPS 2100 -SHRA BR BKN004 BKN015CB
TEMPO 2412/2418 -SHRA SCT005 BKN017CB



MET'MAP, la Météo Aéronautique d'un coup d'oeil ! - Copyright ORBIFLY Décembre 2007 - Disclaimer

ORBIFLY MET'MAP TEAM :

Programmation & Développement : Alexandra Zaïnal
Sur une idée originale de : Baudouin d'Aumeries
Assistance à la programmation : Marc-Olivier Méhu
Soutien technique & logistique : Manuel Goepfert

Contact : metmap@orbifly.com




SOURCES & CREDITS :

   NOAA